sensor_id;sensor_type;location;lat;lon;timestamp;P1;durP1;ratioP1;P2;durP2;ratioP2
20739;SDS011;10530;49.968;19.844;2022-07-23T00:03:09;12.70;;;7.37;;
20739;SDS011;10530;49.968;19.844;2022-07-23T00:08:11;15.35;;;8.13;;
20739;SDS011;10530;49.968;19.844;2022-07-23T00:13:15;15.27;;;8.00;;
20739;SDS011;10530;49.968;19.844;2022-07-23T00:18:18;18.42;;;8.40;;
20739;SDS011;10530;49.968;19.844;2022-07-23T00:23:21;13.85;;;8.02;;
20739;SDS011;10530;49.968;19.844;2022-07-23T00:28:24;15.10;;;7.70;;
20739;SDS011;10530;49.968;19.844;2022-07-23T00:33:27;15.95;;;8.32;;
20739;SDS011;10530;49.968;19.844;2022-07-23T00:38:30;14.50;;;7.63;;
20739;SDS011;10530;49.968;19.844;2022-07-23T00:43:32;17.60;;;7.55;;
20739;SDS011;10530;49.968;19.844;2022-07-23T00:48:35;16.48;;;7.85;;
20739;SDS011;10530;49.968;19.844;2022-07-23T00:53:38;15.43;;;7.80;;
20739;SDS011;10530;49.968;19.844;2022-07-23T00:58:41;16.95;;;8.18;;
20739;SDS011;10530;49.968;19.844;2022-07-23T01:03:45;13.80;;;7.37;;
20739;SDS011;10530;49.968;19.844;2022-07-23T01:08:48;13.85;;;7.25;;
20739;SDS011;10530;49.968;19.844;2022-07-23T01:13:51;14.10;;;7.30;;
20739;SDS011;10530;49.968;19.844;2022-07-23T01:18:54;12.57;;;6.97;;
20739;SDS011;10530;49.968;19.844;2022-07-23T01:23:57;14.27;;;6.90;;
20739;SDS011;10530;49.968;19.844;2022-07-23T01:28:59;13.37;;;6.90;;
20739;SDS011;10530;49.968;19.844;2022-07-23T01:34:03;13.98;;;6.95;;
20739;SDS011;10530;49.968;19.844;2022-07-23T01:39:07;13.45;;;6.95;;
20739;SDS011;10530;49.968;19.844;2022-07-23T01:44:10;14.10;;;6.67;;
20739;SDS011;10530;49.968;19.844;2022-07-23T01:49:14;11.73;;;6.93;;
20739;SDS011;10530;49.968;19.844;2022-07-23T01:54:39;12.80;;;6.53;;
20739;SDS011;10530;49.968;19.844;2022-07-23T01:59:43;14.55;;;6.90;;
20739;SDS011;10530;49.968;19.844;2022-07-23T02:04:46;12.63;;;6.93;;
20739;SDS011;10530;49.968;19.844;2022-07-23T02:09:51;13.63;;;6.87;;
20739;SDS011;10530;49.968;19.844;2022-07-23T02:14:54;12.32;;;6.57;;
20739;SDS011;10530;49.968;19.844;2022-07-23T02:19:59;11.63;;;6.73;;
20739;SDS011;10530;49.968;19.844;2022-07-23T02:25:02;12.27;;;7.40;;
20739;SDS011;10530;49.968;19.844;2022-07-23T02:30:07;13.30;;;6.60;;
20739;SDS011;10530;49.968;19.844;2022-07-23T02:35:11;13.00;;;6.90;;
20739;SDS011;10530;49.968;19.844;2022-07-23T02:40:15;13.45;;;7.03;;
20739;SDS011;10530;49.968;19.844;2022-07-23T02:45:18;14.67;;;6.90;;
20739;SDS011;10530;49.968;19.844;2022-07-23T02:50:20;14.40;;;7.10;;
20739;SDS011;10530;49.968;19.844;2022-07-23T02:55:24;14.38;;;7.00;;
20739;SDS011;10530;49.968;19.844;2022-07-23T03:00:28;14.27;;;7.00;;
20739;SDS011;10530;49.968;19.844;2022-07-23T03:05:31;14.88;;;6.85;;
20739;SDS011;10530;49.968;19.844;2022-07-23T03:10:34;16.33;;;7.23;;
20739;SDS011;10530;49.968;19.844;2022-07-23T03:15:37;15.68;;;6.70;;
20739;SDS011;10530;49.968;19.844;2022-07-23T03:20:40;13.30;;;7.18;;
20739;SDS011;10530;49.968;19.844;2022-07-23T03:25:43;14.50;;;7.07;;
20739;SDS011;10530;49.968;19.844;2022-07-23T03:30:55;14.07;;;7.18;;
20739;SDS011;10530;49.968;19.844;2022-07-23T03:35:58;14.00;;;7.10;;
20739;SDS011;10530;49.968;19.844;2022-07-23T03:41:04;15.98;;;7.57;;
20739;SDS011;10530;49.968;19.844;2022-07-23T03:46:07;17.52;;;7.25;;
20739;SDS011;10530;49.968;19.844;2022-07-23T03:51:10;15.00;;;7.33;;
20739;SDS011;10530;49.968;19.844;2022-07-23T03:56:13;14.93;;;7.50;;
20739;SDS011;10530;49.968;19.844;2022-07-23T04:01:16;14.40;;;7.43;;
20739;SDS011;10530;49.968;19.844;2022-07-23T04:06:19;15.07;;;7.47;;
20739;SDS011;10530;49.968;19.844;2022-07-23T04:11:22;16.85;;;8.55;;
20739;SDS011;10530;49.968;19.844;2022-07-23T04:16:25;13.97;;;7.53;;
20739;SDS011;10530;49.968;19.844;2022-07-23T04:21:28;14.80;;;7.30;;
20739;SDS011;10530;49.968;19.844;2022-07-23T04:26:31;15.47;;;7.30;;
20739;SDS011;10530;49.968;19.844;2022-07-23T04:31:34;14.57;;;7.43;;
20739;SDS011;10530;49.968;19.844;2022-07-23T04:42:42;14.60;;;7.60;;
20739;SDS011;10530;49.968;19.844;2022-07-23T04:47:45;15.15;;;7.47;;
20739;SDS011;10530;49.968;19.844;2022-07-23T04:52:48;14.50;;;8.20;;
20739;SDS011;10530;49.968;19.844;2022-07-23T04:57:51;17.05;;;8.38;;
20739;SDS011;10530;49.968;19.844;2022-07-23T05:02:53;16.90;;;8.15;;
20739;SDS011;10530;49.968;19.844;2022-07-23T05:07:57;13.00;;;7.80;;
20739;SDS011;10530;49.968;19.844;2022-07-23T05:13:01;16.83;;;8.15;;
20739;SDS011;10530;49.968;19.844;2022-07-23T05:18:04;13.70;;;7.60;;
20739;SDS011;10530;49.968;19.844;2022-07-23T05:23:07;12.20;;;7.40;;
20739;SDS011;10530;49.968;19.844;2022-07-23T05:28:10;13.80;;;7.38;;
20739;SDS011;10530;49.968;19.844;2022-07-23T05:33:13;15.20;;;8.10;;
20739;SDS011;10530;49.968;19.844;2022-07-23T05:38:16;12.27;;;7.60;;
20739;SDS011;10530;49.968;19.844;2022-07-23T05:43:19;15.37;;;7.77;;
20739;SDS011;10530;49.968;19.844;2022-07-23T05:48:23;16.10;;;7.88;;
20739;SDS011;10530;49.968;19.844;2022-07-23T05:53:35;13.48;;;7.60;;
20739;SDS011;10530;49.968;19.844;2022-07-23T05:58:42;15.00;;;8.10;;
20739;SDS011;10530;49.968;19.844;2022-07-23T06:03:46;13.60;;;7.88;;
20739;SDS011;10530;49.968;19.844;2022-07-23T06:08:50;13.40;;;7.87;;
20739;SDS011;10530;49.968;19.844;2022-07-23T06:13:54;14.73;;;7.45;;
20739;SDS011;10530;49.968;19.844;2022-07-23T06:19:04;11.93;;;7.32;;
20739;SDS011;10530;49.968;19.844;2022-07-23T06:24:07;12.77;;;7.53;;
20739;SDS011;10530;49.968;19.844;2022-07-23T06:29:10;13.93;;;8.32;;
20739;SDS011;10530;49.968;19.844;2022-07-23T06:34:13;13.53;;;8.23;;
20739;SDS011;10530;49.968;19.844;2022-07-23T06:39:16;12.77;;;7.70;;
20739;SDS011;10530;49.968;19.844;2022-07-23T06:44:22;14.38;;;8.25;;
20739;SDS011;10530;49.968;19.844;2022-07-23T06:49:26;13.67;;;7.83;;
20739;SDS011;10530;49.968;19.844;2022-07-23T06:54:31;13.65;;;8.48;;
20739;SDS011;10530;49.968;19.844;2022-07-23T06:59:34;14.13;;;8.43;;
20739;SDS011;10530;49.968;19.844;2022-07-23T07:04:41;13.65;;;8.55;;
20739;SDS011;10530;49.968;19.844;2022-07-23T07:09:44;13.77;;;8.40;;
20739;SDS011;10530;49.968;19.844;2022-07-23T07:14:49;15.13;;;8.00;;
20739;SDS011;10530;49.968;19.844;2022-07-23T07:19:52;15.02;;;8.68;;
20739;SDS011;10530;49.968;19.844;2022-07-23T07:24:54;14.97;;;8.47;;
20739;SDS011;10530;49.968;19.844;2022-07-23T07:29:57;12.65;;;8.35;;
20739;SDS011;10530;49.968;19.844;2022-07-23T07:35:00;13.75;;;8.40;;
20739;SDS011;10530;49.968;19.844;2022-07-23T07:40:03;15.17;;;9.10;;
20739;SDS011;10530;49.968;19.844;2022-07-23T07:45:06;14.75;;;9.00;;
20739;SDS011;10530;49.968;19.844;2022-07-23T07:50:10;14.27;;;8.93;;
20739;SDS011;10530;49.968;19.844;2022-07-23T07:55:13;13.93;;;9.05;;
20739;SDS011;10530;49.968;19.844;2022-07-23T08:00:16;14.63;;;8.50;;
20739;SDS011;10530;49.968;19.844;2022-07-23T08:05:21;13.97;;;9.13;;
20739;SDS011;10530;49.968;19.844;2022-07-23T08:10:29;13.95;;;8.80;;
20739;SDS011;10530;49.968;19.844;2022-07-23T08:15:36;13.10;;;8.40;;
20739;SDS011;10530;49.968;19.844;2022-07-23T08:20:39;15.27;;;8.68;;
20739;SDS011;10530;49.968;19.844;2022-07-23T08:25:41;14.00;;;8.60;;
20739;SDS011;10530;49.968;19.844;2022-07-23T08:30:44;16.03;;;8.63;;
20739;SDS011;10530;49.968;19.844;2022-07-23T08:35:48;14.35;;;8.77;;
20739;SDS011;10530;49.968;19.844;2022-07-23T08:40:53;13.27;;;8.77;;
20739;SDS011;10530;49.968;19.844;2022-07-23T08:45:58;13.32;;;8.48;;
20739;SDS011;10530;49.968;19.844;2022-07-23T08:51:03;14.82;;;8.40;;
20739;SDS011;10530;49.968;19.844;2022-07-23T08:56:08;13.23;;;8.03;;
20739;SDS011;10530;49.968;19.844;2022-07-23T09:01:11;12.13;;;7.88;;
20739;SDS011;10530;49.968;19.844;2022-07-23T09:06:14;13.90;;;7.83;;
20739;SDS011;10530;49.968;19.844;2022-07-23T09:11:17;10.23;;;7.38;;
20739;SDS011;10530;49.968;19.844;2022-07-23T09:16:25;10.18;;;7.53;;
20739;SDS011;10530;49.968;19.844;2022-07-23T09:21:31;12.20;;;7.47;;
20739;SDS011;10530;49.968;19.844;2022-07-23T09:26:36;11.57;;;7.78;;
20739;SDS011;10530;49.968;19.844;2022-07-23T09:31:43;10.93;;;7.60;;
20739;SDS011;10530;49.968;19.844;2022-07-23T09:36:47;12.68;;;6.97;;
20739;SDS011;10530;49.968;19.844;2022-07-23T09:41:51;10.75;;;7.10;;
20739;SDS011;10530;49.968;19.844;2022-07-23T09:46:57;12.43;;;7.67;;
20739;SDS011;10530;49.968;19.844;2022-07-23T09:52:01;10.05;;;7.25;;
20739;SDS011;10530;49.968;19.844;2022-07-23T09:57:06;11.10;;;7.70;;
20739;SDS011;10530;49.968;19.844;2022-07-23T10:02:17;9.63;;;6.63;;
20739;SDS011;10530;49.968;19.844;2022-07-23T10:07:45;10.68;;;6.70;;
20739;SDS011;10530;49.968;19.844;2022-07-23T10:13:12;10.67;;;7.07;;
20739;SDS011;10530;49.968;19.844;2022-07-23T10:18:40;9.57;;;6.45;;
20739;SDS011;10530;49.968;19.844;2022-07-23T10:23:47;10.50;;;6.70;;
20739;SDS011;10530;49.968;19.844;2022-07-23T10:34:14;9.48;;;6.20;;
20739;SDS011;10530;49.968;19.844;2022-07-23T10:39:30;9.47;;;6.20;;
20739;SDS011;10530;49.968;19.844;2022-07-23T10:44:46;9.32;;;6.30;;
20739;SDS011;10530;49.968;19.844;2022-07-23T10:49:50;10.10;;;6.47;;
20739;SDS011;10530;49.968;19.844;2022-07-23T10:54:54;10.40;;;6.30;;
20739;SDS011;10530;49.968;19.844;2022-07-23T11:05:24;9.97;;;6.80;;
20739;SDS011;10530;49.968;19.844;2022-07-23T11:21:39;9.43;;;5.90;;
20739;SDS011;10530;49.968;19.844;2022-07-23T11:32:00;8.23;;;5.87;;
20739;SDS011;10530;49.968;19.844;2022-07-23T11:37:51;9.52;;;6.68;;
20739;SDS011;10530;49.968;19.844;2022-07-23T11:42:29;8.47;;;6.23;;
20739;SDS011;10530;49.968;19.844;2022-07-23T11:47:33;10.65;;;6.63;;
20739;SDS011;10530;49.968;19.844;2022-07-23T11:52:36;10.68;;;6.78;;
20739;SDS011;10530;49.968;19.844;2022-07-23T11:57:39;9.40;;;6.53;;
20739;SDS011;10530;49.968;19.844;2022-07-23T12:02:45;11.32;;;7.15;;
20739;SDS011;10530;49.968;19.844;2022-07-23T12:07:50;9.10;;;6.70;;
20739;SDS011;10530;49.968;19.844;2022-07-23T12:12:59;9.63;;;7.10;;
20739;SDS011;10530;49.968;19.844;2022-07-23T12:18:05;10.60;;;6.80;;
20739;SDS011;10530;49.968;19.844;2022-07-23T12:23:10;9.90;;;6.80;;
20739;SDS011;10530;49.968;19.844;2022-07-23T12:28:26;10.27;;;6.75;;
20739;SDS011;10530;49.968;19.844;2022-07-23T12:33:32;11.80;;;7.43;;
20739;SDS011;10530;49.968;19.844;2022-07-23T12:38:38;10.07;;;7.25;;
20739;SDS011;10530;49.968;19.844;2022-07-23T12:43:43;8.50;;;6.70;;
20739;SDS011;10530;49.968;19.844;2022-07-23T12:53:56;9.35;;;6.40;;
20739;SDS011;10530;49.968;19.844;2022-07-23T12:59:13;9.23;;;6.43;;
20739;SDS011;10530;49.968;19.844;2022-07-23T13:04:21;9.70;;;7.10;;
20739;SDS011;10530;49.968;19.844;2022-07-23T13:09:25;10.77;;;7.20;;
20739;SDS011;10530;49.968;19.844;2022-07-23T13:14:34;11.17;;;6.70;;
20739;SDS011;10530;49.968;19.844;2022-07-23T13:19:38;9.20;;;7.13;;
20739;SDS011;10530;49.968;19.844;2022-07-23T13:24:41;9.83;;;6.60;;
20739;SDS011;10530;49.968;19.844;2022-07-23T13:29:43;10.23;;;6.70;;
20739;SDS011;10530;49.968;19.844;2022-07-23T13:34:46;9.55;;;6.68;;
20739;SDS011;10530;49.968;19.844;2022-07-23T13:39:51;10.07;;;6.87;;
20739;SDS011;10530;49.968;19.844;2022-07-23T13:44:54;9.70;;;6.63;;
20739;SDS011;10530;49.968;19.844;2022-07-23T13:49:58;11.40;;;7.67;;
20739;SDS011;10530;49.968;19.844;2022-07-23T13:55:02;12.18;;;7.07;;
20739;SDS011;10530;49.968;19.844;2022-07-23T14:00:09;10.50;;;6.90;;
20739;SDS011;10530;49.968;19.844;2022-07-23T14:05:33;11.20;;;7.00;;
20739;SDS011;10530;49.968;19.844;2022-07-23T14:10:36;11.13;;;6.85;;
20739;SDS011;10530;49.968;19.844;2022-07-23T14:15:41;12.70;;;7.53;;
20739;SDS011;10530;49.968;19.844;2022-07-23T14:20:44;12.20;;;7.07;;
20739;SDS011;10530;49.968;19.844;2022-07-23T14:25:47;10.10;;;6.75;;
20739;SDS011;10530;49.968;19.844;2022-07-23T14:30:50;10.17;;;6.90;;
20739;SDS011;10530;49.968;19.844;2022-07-23T14:35:53;9.57;;;6.60;;
20739;SDS011;10530;49.968;19.844;2022-07-23T14:40:56;12.13;;;7.00;;
20739;SDS011;10530;49.968;19.844;2022-07-23T14:46:00;10.55;;;7.22;;
20739;SDS011;10530;49.968;19.844;2022-07-23T14:51:04;11.45;;;6.97;;
20739;SDS011;10530;49.968;19.844;2022-07-23T14:56:07;11.60;;;7.10;;
20739;SDS011;10530;49.968;19.844;2022-07-23T15:01:09;19.33;;;6.60;;
20739;SDS011;10530;49.968;19.844;2022-07-23T15:06:12;37.30;;;5.90;;
20739;SDS011;10530;49.968;19.844;2022-07-23T15:11:15;18.08;;;4.20;;
20739;SDS011;10530;49.968;19.844;2022-07-23T15:16:21;10.02;;;3.55;;
20739;SDS011;10530;49.968;19.844;2022-07-23T15:21:25;9.50;;;3.73;;
20739;SDS011;10530;49.968;19.844;2022-07-23T15:26:31;8.85;;;4.45;;
20739;SDS011;10530;49.968;19.844;2022-07-23T15:31:34;9.53;;;4.87;;
20739;SDS011;10530;49.968;19.844;2022-07-23T15:36:37;9.68;;;4.57;;
20739;SDS011;10530;49.968;19.844;2022-07-23T15:41:41;10.27;;;4.95;;
20739;SDS011;10530;49.968;19.844;2022-07-23T15:46:44;10.50;;;4.93;;
20739;SDS011;10530;49.968;19.844;2022-07-23T15:51:48;10.57;;;4.90;;
20739;SDS011;10530;49.968;19.844;2022-07-23T15:56:51;11.90;;;5.40;;
20739;SDS011;10530;49.968;19.844;2022-07-23T16:01:54;14.40;;;5.60;;
20739;SDS011;10530;49.968;19.844;2022-07-23T16:06:57;8.32;;;4.90;;
20739;SDS011;10530;49.968;19.844;2022-07-23T16:12:01;13.87;;;5.50;;
20739;SDS011;10530;49.968;19.844;2022-07-23T16:17:04;12.43;;;5.65;;
20739;SDS011;10530;49.968;19.844;2022-07-23T16:22:07;14.07;;;6.87;;
20739;SDS011;10530;49.968;19.844;2022-07-23T16:27:12;13.50;;;6.65;;
20739;SDS011;10530;49.968;19.844;2022-07-23T16:32:15;14.02;;;6.75;;
20739;SDS011;10530;49.968;19.844;2022-07-23T16:37:18;14.93;;;7.60;;
20739;SDS011;10530;49.968;19.844;2022-07-23T16:42:21;12.63;;;6.38;;
20739;SDS011;10530;49.968;19.844;2022-07-23T16:47:26;13.87;;;6.70;;
20739;SDS011;10530;49.968;19.844;2022-07-23T16:52:28;11.00;;;6.45;;
20739;SDS011;10530;49.968;19.844;2022-07-23T16:57:31;11.00;;;6.40;;
20739;SDS011;10530;49.968;19.844;2022-07-23T17:02:34;10.43;;;5.93;;
20739;SDS011;10530;49.968;19.844;2022-07-23T17:07:37;12.68;;;6.25;;
20739;SDS011;10530;49.968;19.844;2022-07-23T17:12:41;11.97;;;6.10;;
20739;SDS011;10530;49.968;19.844;2022-07-23T17:17:44;11.43;;;6.20;;
20739;SDS011;10530;49.968;19.844;2022-07-23T17:22:46;11.90;;;6.88;;
20739;SDS011;10530;49.968;19.844;2022-07-23T17:27:49;13.30;;;6.90;;
20739;SDS011;10530;49.968;19.844;2022-07-23T17:32:52;22.75;;;8.90;;
20739;SDS011;10530;49.968;19.844;2022-07-23T17:37:55;16.07;;;7.50;;
20739;SDS011;10530;49.968;19.844;2022-07-23T17:42:58;12.98;;;6.40;;
20739;SDS011;10530;49.968;19.844;2022-07-23T17:48:02;12.95;;;6.75;;
20739;SDS011;10530;49.968;19.844;2022-07-23T17:53:05;12.10;;;6.03;;
20739;SDS011;10530;49.968;19.844;2022-07-23T17:58:08;12.85;;;6.70;;
20739;SDS011;10530;49.968;19.844;2022-07-23T18:03:11;15.47;;;7.37;;
20739;SDS011;10530;49.968;19.844;2022-07-23T18:08:14;13.93;;;6.95;;
20739;SDS011;10530;49.968;19.844;2022-07-23T18:13:17;14.82;;;7.82;;
20739;SDS011;10530;49.968;19.844;2022-07-23T18:18:21;13.10;;;7.40;;
20739;SDS011;10530;49.968;19.844;2022-07-23T18:23:24;15.73;;;7.53;;
20739;SDS011;10530;49.968;19.844;2022-07-23T18:28:27;15.10;;;8.40;;
20739;SDS011;10530;49.968;19.844;2022-07-23T18:33:29;18.05;;;9.35;;
20739;SDS011;10530;49.968;19.844;2022-07-23T18:38:32;18.75;;;9.77;;
20739;SDS011;10530;49.968;19.844;2022-07-23T18:43:40;19.03;;;9.93;;
20739;SDS011;10530;49.968;19.844;2022-07-23T18:48:43;19.00;;;9.45;;
20739;SDS011;10530;49.968;19.844;2022-07-23T18:53:46;20.63;;;9.93;;
20739;SDS011;10530;49.968;19.844;2022-07-23T18:58:49;19.30;;;9.63;;
20739;SDS011;10530;49.968;19.844;2022-07-23T19:03:52;21.55;;;10.52;;
20739;SDS011;10530;49.968;19.844;2022-07-23T19:08:55;20.37;;;10.63;;
20739;SDS011;10530;49.968;19.844;2022-07-23T19:13:58;18.92;;;10.00;;
20739;SDS011;10530;49.968;19.844;2022-07-23T19:19:01;19.73;;;10.80;;
20739;SDS011;10530;49.968;19.844;2022-07-23T19:24:04;22.77;;;11.50;;
20739;SDS011;10530;49.968;19.844;2022-07-23T19:29:09;18.88;;;10.30;;
20739;SDS011;10530;49.968;19.844;2022-07-23T19:34:12;21.23;;;10.23;;
20739;SDS011;10530;49.968;19.844;2022-07-23T19:39:15;20.48;;;10.60;;
20739;SDS011;10530;49.968;19.844;2022-07-23T19:44:18;22.30;;;10.53;;
20739;SDS011;10530;49.968;19.844;2022-07-23T19:49:21;21.30;;;10.57;;
20739;SDS011;10530;49.968;19.844;2022-07-23T19:54:25;21.30;;;11.10;;
20739;SDS011;10530;49.968;19.844;2022-07-23T19:59:28;22.30;;;10.87;;
20739;SDS011;10530;49.968;19.844;2022-07-23T20:04:31;23.13;;;11.93;;
20739;SDS011;10530;49.968;19.844;2022-07-23T20:09:33;21.17;;;10.67;;
20739;SDS011;10530;49.968;19.844;2022-07-23T20:14:36;22.70;;;10.50;;
20739;SDS011;10530;49.968;19.844;2022-07-23T20:19:41;19.55;;;10.75;;
20739;SDS011;10530;49.968;19.844;2022-07-23T20:24:44;21.33;;;10.73;;
20739;SDS011;10530;49.968;19.844;2022-07-23T20:29:46;22.02;;;10.27;;
20739;SDS011;10530;49.968;19.844;2022-07-23T20:34:50;19.73;;;10.43;;
20739;SDS011;10530;49.968;19.844;2022-07-23T20:39:53;22.13;;;10.50;;
20739;SDS011;10530;49.968;19.844;2022-07-23T20:44:56;19.30;;;9.55;;
20739;SDS011;10530;49.968;19.844;2022-07-23T20:49:59;22.20;;;11.20;;
20739;SDS011;10530;49.968;19.844;2022-07-23T20:55:03;19.55;;;10.05;;
20739;SDS011;10530;49.968;19.844;2022-07-23T21:00:07;23.73;;;10.80;;
20739;SDS011;10530;49.968;19.844;2022-07-23T21:05:11;19.65;;;10.48;;
20739;SDS011;10530;49.968;19.844;2022-07-23T21:10:15;22.20;;;10.23;;
20739;SDS011;10530;49.968;19.844;2022-07-23T21:15:23;21.93;;;10.20;;
20739;SDS011;10530;49.968;19.844;2022-07-23T21:20:27;20.25;;;10.25;;
20739;SDS011;10530;49.968;19.844;2022-07-23T21:25:50;17.90;;;9.70;;
20739;SDS011;10530;49.968;19.844;2022-07-23T21:31:13;23.92;;;11.13;;
20739;SDS011;10530;49.968;19.844;2022-07-23T21:36:16;24.58;;;11.00;;
20739;SDS011;10530;49.968;19.844;2022-07-23T21:41:19;20.30;;;10.80;;
20739;SDS011;10530;49.968;19.844;2022-07-23T21:46:22;26.23;;;12.45;;
20739;SDS011;10530;49.968;19.844;2022-07-23T21:51:25;21.30;;;10.07;;
20739;SDS011;10530;49.968;19.844;2022-07-23T21:56:28;25.67;;;10.77;;
20739;SDS011;10530;49.968;19.844;2022-07-23T22:01:31;22.75;;;10.73;;
20739;SDS011;10530;49.968;19.844;2022-07-23T22:06:34;23.17;;;10.87;;
20739;SDS011;10530;49.968;19.844;2022-07-23T22:11:37;21.65;;;10.65;;
20739;SDS011;10530;49.968;19.844;2022-07-23T22:16:40;21.83;;;11.77;;
20739;SDS011;10530;49.968;19.844;2022-07-23T22:21:42;22.38;;;10.85;;
20739;SDS011;10530;49.968;19.844;2022-07-23T22:26:46;22.70;;;11.00;;
20739;SDS011;10530;49.968;19.844;2022-07-23T22:31:49;23.70;;;11.13;;
20739;SDS011;10530;49.968;19.844;2022-07-23T22:36:52;22.00;;;11.45;;
20739;SDS011;10530;49.968;19.844;2022-07-23T22:41:55;21.07;;;10.40;;
20739;SDS011;10530;49.968;19.844;2022-07-23T22:46:58;19.73;;;9.70;;
20739;SDS011;10530;49.968;19.844;2022-07-23T22:52:01;22.98;;;11.25;;
20739;SDS011;10530;49.968;19.844;2022-07-23T22:57:07;23.63;;;11.50;;
20739;SDS011;10530;49.968;19.844;2022-07-23T23:02:10;23.08;;;10.20;;
20739;SDS011;10530;49.968;19.844;2022-07-23T23:07:13;20.67;;;11.50;;
20739;SDS011;10530;49.968;19.844;2022-07-23T23:12:16;21.90;;;11.48;;
20739;SDS011;10530;49.968;19.844;2022-07-23T23:17:19;27.45;;;12.02;;
20739;SDS011;10530;49.968;19.844;2022-07-23T23:22:22;28.10;;;12.87;;
20739;SDS011;10530;49.968;19.844;2022-07-23T23:27:25;27.40;;;12.35;;
20739;SDS011;10530;49.968;19.844;2022-07-23T23:32:27;23.83;;;12.03;;
20739;SDS011;10530;49.968;19.844;2022-07-23T23:37:30;23.27;;;10.93;;
20739;SDS011;10530;49.968;19.844;2022-07-23T23:42:39;24.35;;;11.55;;
20739;SDS011;10530;49.968;19.844;2022-07-23T23:47:42;24.90;;;11.10;;
20739;SDS011;10530;49.968;19.844;2022-07-23T23:52:44;25.90;;;11.93;;
20739;SDS011;10530;49.968;19.844;2022-07-23T23:57:47;27.47;;;13.17;;
